Погода Сеньково Лугна 2 недели

Смоленская область, Россия

24 мая-06 июня
  • 24мая
    Сегодня
    +7°
    +23°
    Ясно и безоблачно
    ВремяПогодаТемператураВлажностьДавлениеВетер, м/сВероятность осадков
    00:00Ясно и безоблачно+12°C52 %756 мм3.0 м/с2 %
    03:00Ясно и безоблачно+10°C60 %756 мм3.2 м/с2 %
    06:00Ясно и безоблачно+10°C63 %758 мм3.3 м/с2 %
    09:00Ясно и безоблачно+17°C53 %758 мм3.5 м/с2 %
    12:00Ясно и безоблачно+21°C35 %758 мм4.6 м/с2 %
    15:00Ясно и безоблачно+22°C30 %758 мм4.0 м/с2 %
    18:00Ясно и безоблачно+22°C31 %757 мм3.5 м/с2 %
    21:00Ясно и безоблачно+16°C46 %757 мм2.8 м/с2 %
  • 25мая
    Суббота
    +8°
    +25°
    Ясно и безоблачно
    ВремяПогодаТемператураВлажностьДавлениеВетер, м/сВероятность осадков
    00:00Ясно и безоблачно+10°C52 %757 мм2.9 м/с2 %
    03:00Ясно и безоблачно+8°C65 %757 мм2.4 м/с2 %
    06:00Ясно и безоблачно+8°C70 %757 мм2.4 м/с2 %
    09:00Ясно и безоблачно+17°C58 %757 мм1.9 м/с2 %
    12:00Ясно и безоблачно+23°C44 %756 мм1.7 м/с2 %
    15:00Ясно и безоблачно+24°C39 %755 мм2.1 м/с2 %
    18:00Ясно и безоблачно+24°C39 %754 мм1.4 м/с2 %
    21:00Ясно и безоблачно+20°C52 %754 мм0.7 м/с2 %
  • 26мая
    Воскресенье
    +11°
    +26°
    Облачно с прояснениями
    ВремяПогодаТемператураВлажностьДавлениеВетер, м/сВероятность осадков
    00:00Ясно и безоблачно+13°C69 %754 мм1.4 м/с2 %
    03:00Практически безоблачно+9°C85 %754 мм2.2 м/с2 %
    06:00Практически безоблачно+11°C80 %754 мм1.7 м/с2 %
    09:00Ясно и безоблачно+19°C63 %754 мм1.2 м/с2 %
    12:00Практически безоблачно+25°C41 %754 мм1.8 м/с2 %
    15:00Облачно с прояснениями+25°C38 %754 мм2.0 м/с2 %
    18:00Ясно и безоблачно+25°C40 %753 мм1.4 м/с3 %
    21:00Практически безоблачно+19°C67 %753 мм1.9 м/с2 %
  • 27мая
    Понедельник
    +11°
    +25°
    Ясно и безоблачно
    ВремяПогодаТемператураВлажностьДавлениеВетер, м/сВероятность осадков
    00:00Ясно и безоблачно+14°C76 %753 мм1.9 м/с2 %
    03:00Ясно и безоблачно+12°C88 %754 мм2.0 м/с2 %
    06:00Ясно и безоблачно+13°C89 %754 мм2.0 м/с2 %
    09:00Ясно и безоблачно+20°C73 %755 мм1.6 м/с2 %
    12:00Практически безоблачно+24°C57 %755 мм1.7 м/с14 %
    15:00Ясно и безоблачно+24°C50 %754 мм1.6 м/с24 %
    18:00Ясно и безоблачно+25°C49 %753 мм1.3 м/с30 %
    21:00Ясно и безоблачно+19°C72 %753 мм1.8 м/с7 %
  • 28мая
    Вторник
    +11°
    +26°
    Практически безоблачно
    ВремяПогодаТемператураВлажностьДавлениеВетер, м/сВероятность осадков
    00:00Ясно и безоблачно+14°C84 %753 мм1.7 м/с2 %
    03:00Ясно и безоблачно+13°C88 %753 мм2.0 м/с2 %
    06:00Ясно и безоблачно+12°C88 %753 мм2.1 м/с2 %
    09:00Ясно и безоблачно+21°C69 %753 мм1.6 м/с2 %
    12:00Практически безоблачно+25°C46 %753 мм2.3 м/с14 %
    15:00Практически безоблачно+25°C43 %752 мм1.9 м/с24 %
    18:00Практически безоблачно+26°C44 %751 мм1.2 м/с21 %
    21:00Практически безоблачно+19°C66 %751 мм1.5 м/с4 %
Мы используем cookies
Соглашаюсь